sensor_id;sensor_type;location;lat;lon;timestamp;temperature;humidity
12060;DHT22;6091;51.432;6.880;2022-11-02T00:00:32;25.40;41.60
12060;DHT22;6091;51.432;6.880;2022-11-02T00:03:00;25.40;41.60
12060;DHT22;6091;51.432;6.880;2022-11-02T00:05:27;25.40;41.60
12060;DHT22;6091;51.432;6.880;2022-11-02T00:07:56;25.40;41.60
12060;DHT22;6091;51.432;6.880;2022-11-02T00:10:23;25.40;41.60
12060;DHT22;6091;51.432;6.880;2022-11-02T00:12:51;25.40;41.70
12060;DHT22;6091;51.432;6.880;2022-11-02T00:15:18;25.40;41.70
12060;DHT22;6091;51.432;6.880;2022-11-02T00:17:50;25.40;41.70
12060;DHT22;6091;51.432;6.880;2022-11-02T00:20:21;25.40;41.80
12060;DHT22;6091;51.432;6.880;2022-11-02T00:22:51;25.40;41.70
12060;DHT22;6091;51.432;6.880;2022-11-02T00:25:24;25.40;41.80
12060;DHT22;6091;51.432;6.880;2022-11-02T00:27:52;25.40;41.70
12060;DHT22;6091;51.432;6.880;2022-11-02T00:30:19;25.40;41.70
12060;DHT22;6091;51.432;6.880;2022-11-02T00:32:46;25.40;41.80
12060;DHT22;6091;51.432;6.880;2022-11-02T00:35:14;25.40;41.80
12060;DHT22;6091;51.432;6.880;2022-11-02T00:37:43;25.40;41.80
12060;DHT22;6091;51.432;6.880;2022-11-02T00:40:11;25.40;41.80
12060;DHT22;6091;51.432;6.880;2022-11-02T00:42:38;25.40;41.80
12060;DHT22;6091;51.432;6.880;2022-11-02T00:45:05;25.30;41.80
12060;DHT22;6091;51.432;6.880;2022-11-02T00:47:33;25.40;41.80
12060;DHT22;6091;51.432;6.880;2022-11-02T00:50:00;25.40;41.90
12060;DHT22;6091;51.432;6.880;2022-11-02T00:52:27;25.30;41.80
12060;DHT22;6091;51.432;6.880;2022-11-02T00:54:54;25.30;41.80
12060;DHT22;6091;51.432;6.880;2022-11-02T00:57:21;25.40;41.90
12060;DHT22;6091;51.432;6.880;2022-11-02T00:59:48;25.40;41.90
12060;DHT22;6091;51.432;6.880;2022-11-02T01:02:15;25.30;41.80
12060;DHT22;6091;51.432;6.880;2022-11-02T01:04:42;25.30;41.90
12060;DHT22;6091;51.432;6.880;2022-11-02T01:07:09;25.40;41.90
12060;DHT22;6091;51.432;6.880;2022-11-02T01:09:36;25.30;42.00
12060;DHT22;6091;51.432;6.880;2022-11-02T01:12:04;25.20;41.80
12060;DHT22;6091;51.432;6.880;2022-11-02T01:14:32;25.40;42.00
12060;DHT22;6091;51.432;6.880;2022-11-02T01:16:59;25.40;42.00
12060;DHT22;6091;51.432;6.880;2022-11-02T01:19:26;25.30;41.90
12060;DHT22;6091;51.432;6.880;2022-11-02T01:21:53;26.40;42.60
12060;DHT22;6091;51.432;6.880;2022-11-02T01:24:20;25.30;41.90
12060;DHT22;6091;51.432;6.880;2022-11-02T01:26:51;25.30;42.00
12060;DHT22;6091;51.432;6.880;2022-11-02T01:29:18;25.40;42.10
12060;DHT22;6091;51.432;6.880;2022-11-02T01:31:45;25.40;42.00
12060;DHT22;6091;51.432;6.880;2022-11-02T01:34:12;25.30;42.00
12060;DHT22;6091;51.432;6.880;2022-11-02T01:36:40;25.30;42.00
12060;DHT22;6091;51.432;6.880;2022-11-02T01:39:10;25.30;42.00
12060;DHT22;6091;51.432;6.880;2022-11-02T01:41:37;25.30;42.00
12060;DHT22;6091;51.432;6.880;2022-11-02T01:44:04;25.30;42.00
12060;DHT22;6091;51.432;6.880;2022-11-02T01:47:06;25.30;42.00
12060;DHT22;6091;51.432;6.880;2022-11-02T01:49:40;25.30;42.10
12060;DHT22;6091;51.432;6.880;2022-11-02T01:52:18;25.30;42.00
12060;DHT22;6091;51.432;6.880;2022-11-02T01:54:56;25.30;42.10
12060;DHT22;6091;51.432;6.880;2022-11-02T01:57:32;25.30;42.10
12060;DHT22;6091;51.432;6.880;2022-11-02T02:02:39;25.30;42.10
12060;DHT22;6091;51.432;6.880;2022-11-02T02:05:13;25.30;42.10
12060;DHT22;6091;51.432;6.880;2022-11-02T02:07:42;25.30;42.10
12060;DHT22;6091;51.432;6.880;2022-11-02T02:10:10;25.30;42.10
12060;DHT22;6091;51.432;6.880;2022-11-02T02:12:39;25.30;42.10
12060;DHT22;6091;51.432;6.880;2022-11-02T02:15:08;25.30;42.10
12060;DHT22;6091;51.432;6.880;2022-11-02T02:17:58;25.30;42.10
12060;DHT22;6091;51.432;6.880;2022-11-02T02:30:06;25.30;42.20
12060;DHT22;6091;51.432;6.880;2022-11-02T02:32:52;25.30;42.20
12060;DHT22;6091;51.432;6.880;2022-11-02T02:35:32;25.30;42.20
12060;DHT22;6091;51.432;6.880;2022-11-02T02:39:02;25.30;42.30
12060;DHT22;6091;51.432;6.880;2022-11-02T02:41:28;25.30;42.30
12060;DHT22;6091;51.432;6.880;2022-11-02T02:43:59;25.20;42.10
12060;DHT22;6091;51.432;6.880;2022-11-02T02:46:35;25.30;42.20
12060;DHT22;6091;51.432;6.880;2022-11-02T02:49:11;25.30;42.30
12060;DHT22;6091;51.432;6.880;2022-11-02T02:51:44;25.30;42.30
12060;DHT22;6091;51.432;6.880;2022-11-02T02:54:19;25.20;42.20
12060;DHT22;6091;51.432;6.880;2022-11-02T02:56:57;25.20;42.30
12060;DHT22;6091;51.432;6.880;2022-11-02T02:59:32;26.20;42.90
12060;DHT22;6091;51.432;6.880;2022-11-02T03:02:05;25.30;42.30
12060;DHT22;6091;51.432;6.880;2022-11-02T03:04:36;25.20;42.30
12060;DHT22;6091;51.432;6.880;2022-11-02T03:07:03;25.20;42.30
12060;DHT22;6091;51.432;6.880;2022-11-02T03:09:43;25.20;42.30
12060;DHT22;6091;51.432;6.880;2022-11-02T03:15:35;25.20;42.30
12060;DHT22;6091;51.432;6.880;2022-11-02T03:18:16;25.30;42.40
12060;DHT22;6091;51.432;6.880;2022-11-02T03:23:51;25.20;42.30
12060;DHT22;6091;51.432;6.880;2022-11-02T03:26:33;25.20;42.40
12060;DHT22;6091;51.432;6.880;2022-11-02T03:29:35;25.20;42.40
12060;DHT22;6091;51.432;6.880;2022-11-02T03:35:05;25.20;42.30
12060;DHT22;6091;51.432;6.880;2022-11-02T03:37:54;25.20;42.30
12060;DHT22;6091;51.432;6.880;2022-11-02T03:40:43;25.20;42.40
12060;DHT22;6091;51.432;6.880;2022-11-02T03:43:14;25.20;42.40
12060;DHT22;6091;51.432;6.880;2022-11-02T03:45:50;25.20;42.40
12060;DHT22;6091;51.432;6.880;2022-11-02T03:48:23;25.20;42.40
12060;DHT22;6091;51.432;6.880;2022-11-02T03:50:57;25.20;42.40
12060;DHT22;6091;51.432;6.880;2022-11-02T03:53:36;25.20;42.40
12060;DHT22;6091;51.432;6.880;2022-11-02T03:56:31;25.20;42.50
12060;DHT22;6091;51.432;6.880;2022-11-02T03:59:02;25.20;42.40
12060;DHT22;6091;51.432;6.880;2022-11-02T04:01:30;25.20;42.40
12060;DHT22;6091;51.432;6.880;2022-11-02T04:04:04;25.20;42.40
12060;DHT22;6091;51.432;6.880;2022-11-02T04:06:32;25.20;42.40
12060;DHT22;6091;51.432;6.880;2022-11-02T04:09:00;25.20;42.40
12060;DHT22;6091;51.432;6.880;2022-11-02T04:11:28;25.20;42.50
12060;DHT22;6091;51.432;6.880;2022-11-02T04:14:17;25.20;42.50
12060;DHT22;6091;51.432;6.880;2022-11-02T04:17:08;25.20;42.50
12060;DHT22;6091;51.432;6.880;2022-11-02T04:19:59;25.20;42.50
12060;DHT22;6091;51.432;6.880;2022-11-02T04:22:26;25.20;43.10
12060;DHT22;6091;51.432;6.880;2022-11-02T04:25:14;25.20;42.50
12060;DHT22;6091;51.432;6.880;2022-11-02T04:27:49;25.20;42.50
12060;DHT22;6091;51.432;6.880;2022-11-02T04:30:20;25.20;42.60
12060;DHT22;6091;51.432;6.880;2022-11-02T04:32:49;25.20;42.50
12060;DHT22;6091;51.432;6.880;2022-11-02T04:35:36;25.20;42.50
12060;DHT22;6091;51.432;6.880;2022-11-02T04:38:03;25.20;42.50
12060;DHT22;6091;51.432;6.880;2022-11-02T04:40:49;25.20;42.50
12060;DHT22;6091;51.432;6.880;2022-11-02T04:43:36;25.10;42.50
12060;DHT22;6091;51.432;6.880;2022-11-02T04:46:03;25.10;42.50
12060;DHT22;6091;51.432;6.880;2022-11-02T04:48:30;25.20;42.50
12060;DHT22;6091;51.432;6.880;2022-11-02T04:50:57;25.10;42.50
12060;DHT22;6091;51.432;6.880;2022-11-02T04:53:24;25.10;42.50
12060;DHT22;6091;51.432;6.880;2022-11-02T04:55:51;25.10;42.50
12060;DHT22;6091;51.432;6.880;2022-11-02T04:58:18;25.10;42.60
12060;DHT22;6091;51.432;6.880;2022-11-02T05:00:45;25.10;42.60
12060;DHT22;6091;51.432;6.880;2022-11-02T05:03:12;25.10;42.60
12060;DHT22;6091;51.432;6.880;2022-11-02T05:05:39;25.10;42.60
12060;DHT22;6091;51.432;6.880;2022-11-02T05:08:06;25.10;42.60
12060;DHT22;6091;51.432;6.880;2022-11-02T05:10:33;25.10;42.60
12060;DHT22;6091;51.432;6.880;2022-11-02T05:13:00;25.10;42.50
12060;DHT22;6091;51.432;6.880;2022-11-02T05:15:27;25.10;42.60
12060;DHT22;6091;51.432;6.880;2022-11-02T05:17:54;25.10;42.60
12060;DHT22;6091;51.432;6.880;2022-11-02T05:20:22;25.10;42.60
12060;DHT22;6091;51.432;6.880;2022-11-02T05:22:49;25.10;42.60
12060;DHT22;6091;51.432;6.880;2022-11-02T05:25:16;25.10;42.60
12060;DHT22;6091;51.432;6.880;2022-11-02T05:27:43;25.10;42.90
12060;DHT22;6091;51.432;6.880;2022-11-02T05:30:10;25.10;42.60
12060;DHT22;6091;51.432;6.880;2022-11-02T05:32:38;25.10;42.60
12060;DHT22;6091;51.432;6.880;2022-11-02T05:35:05;25.10;42.60
12060;DHT22;6091;51.432;6.880;2022-11-02T05:37:32;25.10;42.60
12060;DHT22;6091;51.432;6.880;2022-11-02T05:39:59;25.10;42.60
12060;DHT22;6091;51.432;6.880;2022-11-02T05:42:26;25.10;42.70
12060;DHT22;6091;51.432;6.880;2022-11-02T05:44:53;25.10;42.70
12060;DHT22;6091;51.432;6.880;2022-11-02T05:47:19;25.00;42.60
12060;DHT22;6091;51.432;6.880;2022-11-02T05:49:47;25.00;42.60
12060;DHT22;6091;51.432;6.880;2022-11-02T05:52:14;25.10;42.70
12060;DHT22;6091;51.432;6.880;2022-11-02T05:54:41;25.10;42.70
12060;DHT22;6091;51.432;6.880;2022-11-02T05:57:08;25.10;42.70
12060;DHT22;6091;51.432;6.880;2022-11-02T05:59:35;25.00;42.70
12060;DHT22;6091;51.432;6.880;2022-11-02T06:02:02;25.10;42.70
12060;DHT22;6091;51.432;6.880;2022-11-02T06:04:29;25.10;42.70
12060;DHT22;6091;51.432;6.880;2022-11-02T06:06:56;25.10;42.70
12060;DHT22;6091;51.432;6.880;2022-11-02T06:09:23;25.00;42.70
12060;DHT22;6091;51.432;6.880;2022-11-02T06:11:50;25.00;42.70
12060;DHT22;6091;51.432;6.880;2022-11-02T06:14:17;25.10;42.70
12060;DHT22;6091;51.432;6.880;2022-11-02T06:16:44;25.00;42.70
12060;DHT22;6091;51.432;6.880;2022-11-02T06:19:10;25.00;42.70
12060;DHT22;6091;51.432;6.880;2022-11-02T06:21:37;25.00;42.60
12060;DHT22;6091;51.432;6.880;2022-11-02T06:24:09;25.00;42.60
12060;DHT22;6091;51.432;6.880;2022-11-02T06:26:36;25.00;42.60
12060;DHT22;6091;51.432;6.880;2022-11-02T06:29:03;25.00;42.60
12060;DHT22;6091;51.432;6.880;2022-11-02T06:31:30;25.00;42.60
12060;DHT22;6091;51.432;6.880;2022-11-02T06:33:57;24.80;42.50
12060;DHT22;6091;51.432;6.880;2022-11-02T06:36:24;25.00;42.60
12060;DHT22;6091;51.432;6.880;2022-11-02T06:38:51;25.00;42.80
12060;DHT22;6091;51.432;6.880;2022-11-02T06:41:18;25.00;42.70
12060;DHT22;6091;51.432;6.880;2022-11-02T06:43:48;25.00;42.70
12060;DHT22;6091;51.432;6.880;2022-11-02T06:46:15;25.00;42.60
12060;DHT22;6091;51.432;6.880;2022-11-02T06:52:52;25.00;42.50
12060;DHT22;6091;51.432;6.880;2022-11-02T06:59:29;25.00;42.60
12060;DHT22;6091;51.432;6.880;2022-11-02T07:01:56;25.00;42.60
12060;DHT22;6091;51.432;6.880;2022-11-02T07:04:23;24.90;42.60
12060;DHT22;6091;51.432;6.880;2022-11-02T07:06:50;24.90;42.70
12060;DHT22;6091;51.432;6.880;2022-11-02T07:09:17;25.00;42.90
12060;DHT22;6091;51.432;6.880;2022-11-02T07:11:44;25.00;43.00
12060;DHT22;6091;51.432;6.880;2022-11-02T07:14:11;25.00;43.00
12060;DHT22;6091;51.432;6.880;2022-11-02T07:16:40;25.00;43.00
12060;DHT22;6091;51.432;6.880;2022-11-02T07:19:07;25.00;42.90
12060;DHT22;6091;51.432;6.880;2022-11-02T07:21:34;25.00;43.10
12060;DHT22;6091;51.432;6.880;2022-11-02T07:24:01;25.10;43.10
12060;DHT22;6091;51.432;6.880;2022-11-02T07:26:28;25.10;43.10
12060;DHT22;6091;51.432;6.880;2022-11-02T07:28:55;25.10;43.10
12060;DHT22;6091;51.432;6.880;2022-11-02T07:31:25;25.20;43.20
12060;DHT22;6091;51.432;6.880;2022-11-02T07:33:52;25.20;43.20
12060;DHT22;6091;51.432;6.880;2022-11-02T07:36:19;25.20;43.20
12060;DHT22;6091;51.432;6.880;2022-11-02T07:38:46;25.20;43.20
12060;DHT22;6091;51.432;6.880;2022-11-02T07:41:13;25.20;43.20
12060;DHT22;6091;51.432;6.880;2022-11-02T07:43:42;25.20;43.80
12060;DHT22;6091;51.432;6.880;2022-11-02T07:46:09;25.30;43.20
12060;DHT22;6091;51.432;6.880;2022-11-02T07:48:37;25.30;43.90
12060;DHT22;6091;51.432;6.880;2022-11-02T07:51:04;25.30;43.30
12060;DHT22;6091;51.432;6.880;2022-11-02T07:53:33;25.30;43.30
12060;DHT22;6091;51.432;6.880;2022-11-02T07:56:01;25.30;43.40
12060;DHT22;6091;51.432;6.880;2022-11-02T07:58:29;25.30;43.30
12060;DHT22;6091;51.432;6.880;2022-11-02T08:01:00;25.30;43.30
12060;DHT22;6091;51.432;6.880;2022-11-02T08:03:28;25.40;43.40
12060;DHT22;6091;51.432;6.880;2022-11-02T08:05:55;25.40;43.30
12060;DHT22;6091;51.432;6.880;2022-11-02T08:08:23;25.40;43.30
12060;DHT22;6091;51.432;6.880;2022-11-02T08:10:53;25.50;43.30
12060;DHT22;6091;51.432;6.880;2022-11-02T08:13:22;25.60;43.10
12060;DHT22;6091;51.432;6.880;2022-11-02T08:15:52;25.50;43.10
12060;DHT22;6091;51.432;6.880;2022-11-02T08:18:22;25.50;43.10
12060;DHT22;6091;51.432;6.880;2022-11-02T08:20:51;25.50;43.00
12060;DHT22;6091;51.432;6.880;2022-11-02T08:23:22;25.60;42.40
12060;DHT22;6091;51.432;6.880;2022-11-02T08:25:52;25.50;42.20
12060;DHT22;6091;51.432;6.880;2022-11-02T08:28:25;25.50;41.80
12060;DHT22;6091;51.432;6.880;2022-11-02T08:31:01;25.50;40.90
12060;DHT22;6091;51.432;6.880;2022-11-02T08:33:28;25.50;40.90
12060;DHT22;6091;51.432;6.880;2022-11-02T08:36:00;25.50;40.50
12060;DHT22;6091;51.432;6.880;2022-11-02T08:38:32;25.40;39.60
12060;DHT22;6091;51.432;6.880;2022-11-02T08:41:00;25.40;39.40
12060;DHT22;6091;51.432;6.880;2022-11-02T08:43:26;25.40;39.50
12060;DHT22;6091;51.432;6.880;2022-11-02T08:45:56;25.30;39.20
12060;DHT22;6091;51.432;6.880;2022-11-02T08:48:41;25.20;38.80
12060;DHT22;6091;51.432;6.880;2022-11-02T08:51:10;25.20;39.00
12060;DHT22;6091;51.432;6.880;2022-11-02T08:53:37;25.10;38.70
12060;DHT22;6091;51.432;6.880;2022-11-02T08:56:05;25.00;38.70
12060;DHT22;6091;51.432;6.880;2022-11-02T08:58:32;25.00;38.90
12060;DHT22;6091;51.432;6.880;2022-11-02T09:00:59;25.00;39.00
12060;DHT22;6091;51.432;6.880;2022-11-02T09:03:26;24.90;38.80
12060;DHT22;6091;51.432;6.880;2022-11-02T09:05:58;24.90;38.60
12060;DHT22;6091;51.432;6.880;2022-11-02T09:08:28;24.80;38.30
12060;DHT22;6091;51.432;6.880;2022-11-02T09:11:01;24.80;38.50
12060;DHT22;6091;51.432;6.880;2022-11-02T09:13:29;24.80;38.20
12060;DHT22;6091;51.432;6.880;2022-11-02T09:15:59;24.70;38.70
12060;DHT22;6091;51.432;6.880;2022-11-02T09:18:26;24.50;38.40
12060;DHT22;6091;51.432;6.880;2022-11-02T09:20:54;24.50;39.00
12060;DHT22;6091;51.432;6.880;2022-11-02T09:23:21;24.60;39.30
12060;DHT22;6091;51.432;6.880;2022-11-02T09:25:51;24.60;39.30
12060;DHT22;6091;51.432;6.880;2022-11-02T09:28:21;24.70;39.80
12060;DHT22;6091;51.432;6.880;2022-11-02T09:30:51;24.70;39.60
12060;DHT22;6091;51.432;6.880;2022-11-02T09:33:18;24.80;39.70
12060;DHT22;6091;51.432;6.880;2022-11-02T09:35:47;24.60;39.70
12060;DHT22;6091;51.432;6.880;2022-11-02T09:38:16;24.80;39.80
12060;DHT22;6091;51.432;6.880;2022-11-02T09:46:35;25.00;39.90
12060;DHT22;6091;51.432;6.880;2022-11-02T09:49:22;25.00;40.00
12060;DHT22;6091;51.432;6.880;2022-11-02T09:51:53;25.10;40.10
12060;DHT22;6091;51.432;6.880;2022-11-02T09:57:05;25.20;40.20
12060;DHT22;6091;51.432;6.880;2022-11-02T09:59:37;25.20;40.30
12060;DHT22;6091;51.432;6.880;2022-11-02T10:02:28;25.30;40.40
12060;DHT22;6091;51.432;6.880;2022-11-02T10:08:12;25.30;40.40
12060;DHT22;6091;51.432;6.880;2022-11-02T10:15:56;25.50;40.60
12060;DHT22;6091;51.432;6.880;2022-11-02T10:18:30;25.60;40.60
12060;DHT22;6091;51.432;6.880;2022-11-02T10:21:29;25.60;40.60
12060;DHT22;6091;51.432;6.880;2022-11-02T10:26:55;25.70;40.50
12060;DHT22;6091;51.432;6.880;2022-11-02T10:29:44;25.70;40.90
12060;DHT22;6091;51.432;6.880;2022-11-02T10:32:16;25.80;40.60
12060;DHT22;6091;51.432;6.880;2022-11-02T10:34:44;25.80;40.70
12060;DHT22;6091;51.432;6.880;2022-11-02T10:40:45;25.90;40.70
12060;DHT22;6091;51.432;6.880;2022-11-02T10:43:36;26.00;40.70
12060;DHT22;6091;51.432;6.880;2022-11-02T10:52:17;26.30;40.80
12060;DHT22;6091;51.432;6.880;2022-11-02T10:54:44;26.50;41.00
12060;DHT22;6091;51.432;6.880;2022-11-02T10:57:21;26.50;41.00
12060;DHT22;6091;51.432;6.880;2022-11-02T11:00:25;26.60;41.00
12060;DHT22;6091;51.432;6.880;2022-11-02T11:03:09;26.80;40.80
12060;DHT22;6091;51.432;6.880;2022-11-02T11:08:40;27.10;41.00
12060;DHT22;6091;51.432;6.880;2022-11-02T11:11:23;27.20;40.60
12060;DHT22;6091;51.432;6.880;2022-11-02T11:13:58;27.30;40.90
12060;DHT22;6091;51.432;6.880;2022-11-02T11:16:57;27.50;40.90
12060;DHT22;6091;51.432;6.880;2022-11-02T11:19:51;27.70;40.70
12060;DHT22;6091;51.432;6.880;2022-11-02T11:27:55;28.20;40.50
12060;DHT22;6091;51.432;6.880;2022-11-02T11:30:35;28.30;40.70
12060;DHT22;6091;51.432;6.880;2022-11-02T11:33:23;28.40;40.30
12060;DHT22;6091;51.432;6.880;2022-11-02T11:35:51;28.60;40.60
12060;DHT22;6091;51.432;6.880;2022-11-02T11:38:21;28.70;40.50
12060;DHT22;6091;51.432;6.880;2022-11-02T11:40:56;28.80;40.40
12060;DHT22;6091;51.432;6.880;2022-11-02T11:43:29;29.00;40.40
12060;DHT22;6091;51.432;6.880;2022-11-02T11:46:06;29.10;40.70
12060;DHT22;6091;51.432;6.880;2022-11-02T11:48:36;29.20;40.20
12060;DHT22;6091;51.432;6.880;2022-11-02T11:51:33;29.30;40.20
12060;DHT22;6091;51.432;6.880;2022-11-02T11:54:29;29.50;39.70
12060;DHT22;6091;51.432;6.880;2022-11-02T11:56:59;29.60;39.60
12060;DHT22;6091;51.432;6.880;2022-11-02T11:59:54;29.70;39.90
12060;DHT22;6091;51.432;6.880;2022-11-02T12:02:30;29.80;39.60
12060;DHT22;6091;51.432;6.880;2022-11-02T12:05:15;29.90;39.40
12060;DHT22;6091;51.432;6.880;2022-11-02T12:07:54;29.90;39.30
12060;DHT22;6091;51.432;6.880;2022-11-02T12:36:50;29.30;38.50
12060;DHT22;6091;51.432;6.880;2022-11-02T12:40:06;29.20;38.30
12060;DHT22;6091;51.432;6.880;2022-11-02T12:55:26;28.80;38.60
12060;DHT22;6091;51.432;6.880;2022-11-02T12:58:27;28.60;38.60
12060;DHT22;6091;51.432;6.880;2022-11-02T13:01:05;28.60;38.70
12060;DHT22;6091;51.432;6.880;2022-11-02T13:06:40;28.50;38.70
12060;DHT22;6091;51.432;6.880;2022-11-02T13:09:23;28.40;38.70
12060;DHT22;6091;51.432;6.880;2022-11-02T13:12:03;28.30;38.60
12060;DHT22;6091;51.432;6.880;2022-11-02T13:15:04;28.30;38.70
12060;DHT22;6091;51.432;6.880;2022-11-02T13:17:43;28.30;38.90
12060;DHT22;6091;51.432;6.880;2022-11-02T13:23:14;28.20;38.70
12060;DHT22;6091;51.432;6.880;2022-11-02T13:25:55;28.10;38.70
12060;DHT22;6091;51.432;6.880;2022-11-02T13:28:56;28.10;38.70
12060;DHT22;6091;51.432;6.880;2022-11-02T13:31:43;28.10;38.80
12060;DHT22;6091;51.432;6.880;2022-11-02T13:34:35;28.10;38.80
12060;DHT22;6091;51.432;6.880;2022-11-02T13:37:17;28.00;38.80
12060;DHT22;6091;51.432;6.880;2022-11-02T13:39:54;28.00;38.90
12060;DHT22;6091;51.432;6.880;2022-11-02T13:45:23;27.90;38.80
12060;DHT22;6091;51.432;6.880;2022-11-02T13:50:54;27.90;38.90
12060;DHT22;6091;51.432;6.880;2022-11-02T13:53:31;27.80;38.80
12060;DHT22;6091;51.432;6.880;2022-11-02T13:56:19;27.80;38.90
12060;DHT22;6091;51.432;6.880;2022-11-02T13:58:54;27.80;38.90
12060;DHT22;6091;51.432;6.880;2022-11-02T14:01:26;27.70;38.90
12060;DHT22;6091;51.432;6.880;2022-11-02T14:04:00;27.70;38.90
12060;DHT22;6091;51.432;6.880;2022-11-02T14:06:31;27.60;38.80
12060;DHT22;6091;51.432;6.880;2022-11-02T14:09:22;27.60;38.90
12060;DHT22;6091;51.432;6.880;2022-11-02T14:11:50;27.60;39.00
12060;DHT22;6091;51.432;6.880;2022-11-02T14:14:38;27.50;38.90
12060;DHT22;6091;51.432;6.880;2022-11-02T14:17:16;27.50;38.90
12060;DHT22;6091;51.432;6.880;2022-11-02T14:22:15;27.40;39.00
12060;DHT22;6091;51.432;6.880;2022-11-02T14:32:24;27.30;39.00
12060;DHT22;6091;51.432;6.880;2022-11-02T14:35:39;27.30;39.20
12060;DHT22;6091;51.432;6.880;2022-11-02T14:38:22;27.30;39.20
12060;DHT22;6091;51.432;6.880;2022-11-02T14:41:28;27.20;39.10
12060;DHT22;6091;51.432;6.880;2022-11-02T14:44:58;27.20;39.20
12060;DHT22;6091;51.432;6.880;2022-11-02T14:47:55;27.20;39.20
12060;DHT22;6091;51.432;6.880;2022-11-02T14:50:26;27.10;39.20
12060;DHT22;6091;51.432;6.880;2022-11-02T14:53:03;27.10;39.10
12060;DHT22;6091;51.432;6.880;2022-11-02T14:55:35;27.10;39.40
12060;DHT22;6091;51.432;6.880;2022-11-02T14:58:15;27.10;39.30
12060;DHT22;6091;51.432;6.880;2022-11-02T15:06:02;26.90;39.40
12060;DHT22;6091;51.432;6.880;2022-11-02T15:08:35;27.30;39.60
12060;DHT22;6091;51.432;6.880;2022-11-02T15:19:46;26.80;39.50
12060;DHT22;6091;51.432;6.880;2022-11-02T15:22:43;26.80;39.40
12060;DHT22;6091;51.432;6.880;2022-11-02T15:25:26;26.80;39.60
12060;DHT22;6091;51.432;6.880;2022-11-02T15:28:22;26.80;39.60
12060;DHT22;6091;51.432;6.880;2022-11-02T15:30:54;26.80;39.60
12060;DHT22;6091;51.432;6.880;2022-11-02T15:33:42;26.70;39.50
12060;DHT22;6091;51.432;6.880;2022-11-02T15:36:25;26.70;39.60
12060;DHT22;6091;51.432;6.880;2022-11-02T15:38:57;26.70;39.60
12060;DHT22;6091;51.432;6.880;2022-11-02T15:44:40;26.60;39.70
12060;DHT22;6091;51.432;6.880;2022-11-02T15:53:23;26.50;39.70
12060;DHT22;6091;51.432;6.880;2022-11-02T15:56:37;26.50;39.70
12060;DHT22;6091;51.432;6.880;2022-11-02T16:01:43;26.50;39.80
12060;DHT22;6091;51.432;6.880;2022-11-02T16:04:18;26.50;39.80
12060;DHT22;6091;51.432;6.880;2022-11-02T16:06:46;26.40;39.80
12060;DHT22;6091;51.432;6.880;2022-11-02T16:09:31;26.40;39.70
12060;DHT22;6091;51.432;6.880;2022-11-02T16:17:39;26.40;39.90
12060;DHT22;6091;51.432;6.880;2022-11-02T16:22:57;26.30;40.00
12060;DHT22;6091;51.432;6.880;2022-11-02T16:25:35;26.30;39.90
12060;DHT22;6091;51.432;6.880;2022-11-02T16:28:24;26.30;39.90
12060;DHT22;6091;51.432;6.880;2022-11-02T16:33:52;26.30;40.20
12060;DHT22;6091;51.432;6.880;2022-11-02T16:36:26;26.20;40.00
12060;DHT22;6091;51.432;6.880;2022-11-02T16:38:56;26.20;40.20
12060;DHT22;6091;51.432;6.880;2022-11-02T16:41:29;26.20;40.20
12060;DHT22;6091;51.432;6.880;2022-11-02T16:44:06;26.20;40.30
12060;DHT22;6091;51.432;6.880;2022-11-02T16:49:24;26.20;40.50
12060;DHT22;6091;51.432;6.880;2022-11-02T16:51:54;26.20;40.40
12060;DHT22;6091;51.432;6.880;2022-11-02T16:54:37;26.20;40.40
12060;DHT22;6091;51.432;6.880;2022-11-02T17:00:00;26.20;40.00
12060;DHT22;6091;51.432;6.880;2022-11-02T17:02:41;26.20;40.80
12060;DHT22;6091;51.432;6.880;2022-11-02T17:05:20;26.20;40.60
12060;DHT22;6091;51.432;6.880;2022-11-02T17:08:05;26.20;40.90
12060;DHT22;6091;51.432;6.880;2022-11-02T17:10:36;26.20;40.90
12060;DHT22;6091;51.432;6.880;2022-11-02T17:13:05;26.20;40.80
12060;DHT22;6091;51.432;6.880;2022-11-02T17:15:49;24.60;39.80
12060;DHT22;6091;51.432;6.880;2022-11-02T17:23:39;26.30;41.20
12060;DHT22;6091;51.432;6.880;2022-11-02T17:28:57;26.30;41.30
12060;DHT22;6091;51.432;6.880;2022-11-02T17:31:36;26.30;41.70
12060;DHT22;6091;51.432;6.880;2022-11-02T17:34:14;27.50;41.90
12060;DHT22;6091;51.432;6.880;2022-11-02T17:36:46;26.20;40.90
12060;DHT22;6091;51.432;6.880;2022-11-02T17:39:19;26.20;41.00
12060;DHT22;6091;51.432;6.880;2022-11-02T17:41:51;26.30;41.10
12060;DHT22;6091;51.432;6.880;2022-11-02T17:44:39;26.20;41.20
12060;DHT22;6091;51.432;6.880;2022-11-02T17:47:11;26.90;41.50
12060;DHT22;6091;51.432;6.880;2022-11-02T17:49:39;26.30;41.30
12060;DHT22;6091;51.432;6.880;2022-11-02T17:52:08;26.30;41.20
12060;DHT22;6091;51.432;6.880;2022-11-02T17:54:38;26.20;41.20
12060;DHT22;6091;51.432;6.880;2022-11-02T17:57:10;26.20;41.20
12060;DHT22;6091;51.432;6.880;2022-11-02T17:59:39;26.30;41.40
12060;DHT22;6091;51.432;6.880;2022-11-02T18:02:13;26.30;41.30
12060;DHT22;6091;51.432;6.880;2022-11-02T18:04:41;26.30;41.40
12060;DHT22;6091;51.432;6.880;2022-11-02T18:07:09;26.30;41.30
12060;DHT22;6091;51.432;6.880;2022-11-02T18:09:37;26.30;41.30
12060;DHT22;6091;51.432;6.880;2022-11-02T18:12:04;26.30;41.30
12060;DHT22;6091;51.432;6.880;2022-11-02T18:14:31;26.30;41.20
12060;DHT22;6091;51.432;6.880;2022-11-02T18:16:58;26.30;41.20
12060;DHT22;6091;51.432;6.880;2022-11-02T18:19:25;26.30;41.20
12060;DHT22;6091;51.432;6.880;2022-11-02T18:21:53;26.20;41.20
12060;DHT22;6091;51.432;6.880;2022-11-02T18:24:20;26.20;41.20
12060;DHT22;6091;51.432;6.880;2022-11-02T18:26:47;26.30;41.20
12060;DHT22;6091;51.432;6.880;2022-11-02T18:29:14;26.20;41.20
12060;DHT22;6091;51.432;6.880;2022-11-02T18:31:41;26.20;41.20
12060;DHT22;6091;51.432;6.880;2022-11-02T18:34:09;26.20;41.20
12060;DHT22;6091;51.432;6.880;2022-11-02T18:36:37;26.20;41.20
12060;DHT22;6091;51.432;6.880;2022-11-02T18:39:05;26.20;41.20
12060;DHT22;6091;51.432;6.880;2022-11-02T18:41:36;26.20;41.20
12060;DHT22;6091;51.432;6.880;2022-11-02T18:44:04;26.20;41.30
12060;DHT22;6091;51.432;6.880;2022-11-02T18:46:40;26.20;41.20
12060;DHT22;6091;51.432;6.880;2022-11-02T18:49:07;26.20;41.30
12060;DHT22;6091;51.432;6.880;2022-11-02T18:51:34;26.10;41.10
12060;DHT22;6091;51.432;6.880;2022-11-02T18:54:03;26.10;41.20
12060;DHT22;6091;51.432;6.880;2022-11-02T18:56:31;26.10;41.30
12060;DHT22;6091;51.432;6.880;2022-11-02T18:58:59;26.10;41.30
12060;DHT22;6091;51.432;6.880;2022-11-02T19:01:26;26.00;41.20
12060;DHT22;6091;51.432;6.880;2022-11-02T19:03:55;26.00;41.20
12060;DHT22;6091;51.432;6.880;2022-11-02T19:06:25;26.00;41.20
12060;DHT22;6091;51.432;6.880;2022-11-02T19:09:13;26.00;41.20
12060;DHT22;6091;51.432;6.880;2022-11-02T19:14:21;26.00;41.30
12060;DHT22;6091;51.432;6.880;2022-11-02T19:16:49;26.00;41.30
12060;DHT22;6091;51.432;6.880;2022-11-02T19:19:16;26.00;41.30
12060;DHT22;6091;51.432;6.880;2022-11-02T19:21:43;25.90;41.30
12060;DHT22;6091;51.432;6.880;2022-11-02T19:24:10;25.90;41.30
12060;DHT22;6091;51.432;6.880;2022-11-02T19:26:38;25.90;41.30